Time;durP1;ratioP1;P1;durP2;ratioP2;P2;SDS_P1;SDS_P2;PMS_P1;PMS_P2;Temp;Humidity;BMP_temperature;BMP_pressure;BME280_temperature;BME280_humidity;BME280_pressure;Samples;Min_cycle;Max_cycle;Signal;HPM_P1;HPM_P2
2021/03/20 00:00:16;;;;;;;;;;;;;;;;;;4973380;28;20398;-60
2021/03/20 00:02:42;;;;;;;;;;;;;;;;;;4970423;28;19972;-61
2021/03/20 00:05:09;;;;;;;;;;;;;;;;;;4974557;28;20374;-60
2021/03/20 00:07:35;;;;;;;;;;;;;;;;;;4970055;28;19961;-61
2021/03/20 00:10:02;;;;;;;;;;;;;;;;;;4973327;28;19981;-59
2021/03/20 00:12:28;;;;;;;;;;;;;;;;;;4974645;28;20388;-60
2021/03/20 00:14:55;;;;;;;;;;;;;;;;;;4966090;28;19962;-61
2021/03/20 00:17:21;;;;;;;;;;;;;;;;;;4969283;28;19927;-61
2021/03/20 00:19:47;;;;;;;;;;;;;;;;;;4970537;28;20052;-59
2021/03/20 00:22:14;;;;;;;;;;;;;;;;;;4965282;28;20363;-62
2021/03/20 00:24:40;;;;;;;;;;;;;;;;;;4971768;28;19984;-60
2021/03/20 00:27:07;;;;;;;;;;;;;;;;;;4973723;28;20410;-61
2021/03/20 00:29:33;;;;;;;;;;;;;;;;;;4973413;28;20065;-60
2021/03/20 00:32:00;;;;;;;;;;;;;;;;;;4971789;28;19934;-61
2021/03/20 00:34:26;;;;;;;;;;;;;;;;;;4974066;28;19926;-60
2021/03/20 00:36:53;;;;;;;;;;;;;;;;;;4973604;28;20113;-62
2021/03/20 00:39:19;;;;;;;;;;;;;;;;;;4967650;28;19976;-64
2021/03/20 00:41:46;;;;;;;;;;;;;;;;;;4973025;28;20257;-61
2021/03/20 00:44:13;;;;;;;;;;;;;;;;;;4961830;28;19937;-61
2021/03/20 00:46:39;;;;;;;;;;;;;;;;;;4972640;28;20331;-62
2021/03/20 00:49:06;;;;;;;;;;;;;;;;;;4971994;28;19927;-59
2021/03/20 00:51:33;;;;;;;;;;;;;;;;;;4969964;28;20331;-61
2021/03/20 00:54:00;;;;;;;;;;;;;;;;;;4972995;28;20403;-60
2021/03/20 00:56:26;;;;;;;;;;;;;;;;;;4973126;28;20012;-61
2021/03/20 00:58:52;;;;;;;;;;;;;;;;;;4972546;28;19958;-60
2021/03/20 01:01:19;;;;;;;;;;;;;;;;;;4973344;28;19933;-59
2021/03/20 01:03:45;;;;;;;;;;;;;;;;;;4973366;28;19980;-60
2021/03/20 01:06:12;;;;;;;;;;;;;;;;;;4978733;28;19936;-59
2021/03/20 01:08:38;;;;;;;;;;;;;;;;;;4960808;28;20037;-62
2021/03/20 01:11:05;;;;;;;;;;;;;;;;;;4972396;28;19938;-61
2021/03/20 01:13:31;;;;;;;;;;;;;;;;;;4971924;28;19972;-62
2021/03/20 01:15:58;;;;;;;;;;;;;;;;;;4973800;28;19989;-61
2021/03/20 01:18:24;;;;;;;;;;;;;;;;;;4973115;28;20374;-65
2021/03/20 01:20:51;;;;;;;;;;;;;;;;;;4971271;28;19930;-60
2021/03/20 01:23:17;;;;;;;;;;;;;;;;;;4969982;28;20014;-60
2021/03/20 01:25:44;;;;;;;;;;;;;;;;;;4962472;28;19937;-62
2021/03/20 01:28:10;;;;;;;;;;;;;;;;;;4968759;28;20313;-61
2021/03/20 01:30:36;;;;;;;;;;;;;;;;;;4977404;28;20302;-61
2021/03/20 01:33:03;;;;;;;;;;;;;;;;;;4973892;28;19985;-61
2021/03/20 01:35:29;;;;;;;;;;;;;;;;;;4970001;28;19974;-59
2021/03/20 01:37:56;;;;;;;;;;;;;;;;;;4973913;28;19933;-62
2021/03/20 01:40:22;;;;;;;;;;;;;;;;;;4973668;28;19926;-63
2021/03/20 01:42:49;;;;;;;;;;;;;;;;;;4973501;28;20005;-60
2021/03/20 01:45:15;;;;;;;;;;;;;;;;;;4974403;28;19933;-61
2021/03/20 01:47:42;;;;;;;;;;;;;;;;;;4977003;28;20021;-62
2021/03/20 01:50:08;;;;;;;;;;;;;;;;;;4977599;28;19957;-62
2021/03/20 01:52:34;;;;;;;;;;;;;;;;;;4977362;28;19926;-61
2021/03/20 01:55:01;;;;;;;;;;;;;;;;;;4975953;28;19930;-62
2021/03/20 01:57:27;;;;;;;;;;;;;;;;;;4963342;28;20025;-62
2021/03/20 01:59:54;;;;;;;;;;;;;;;;;;4970675;28;19932;-63
2021/03/20 02:02:20;;;;;;;;;;;;;;;;;;4972213;28;20220;-63
2021/03/20 02:04:47;;;;;;;;;;;;;;;;;;4974235;28;19932;-62
2021/03/20 02:07:13;;;;;;;;;;;;;;;;;;4970403;28;20311;-61
2021/03/20 02:09:40;;;;;;;;;;;;;;;;;;4980676;28;19952;-62
2021/03/20 02:12:06;;;;;;;;;;;;;;;;;;4968672;28;19926;-61
2021/03/20 02:14:33;;;;;;;;;;;;;;;;;;4973904;28;19932;-62
2021/03/20 02:16:59;;;;;;;;;;;;;;;;;;4976071;28;20018;-62
2021/03/20 02:19:25;;;;;;;;;;;;;;;;;;4977188;28;19926;-63
2021/03/20 02:21:52;;;;;;;;;;;;;;;;;;4977080;28;19953;-62
2021/03/20 02:24:18;;;;;;;;;;;;;;;;;;4975837;28;20021;-63
2021/03/20 02:26:45;;;;;;;;;;;;;;;;;;4973467;28;19926;-62
2021/03/20 02:29:11;;;;;;;;;;;;;;;;;;4976695;28;19966;-62
2021/03/20 02:31:38;;;;;;;;;;;;;;;;;;4972893;28;20292;-62
2021/03/20 02:34:04;;;;;;;;;;;;;;;;;;4975294;28;19926;-61
2021/03/20 02:36:31;;;;;;;;;;;;;;;;;;4977024;28;19926;-62
2021/03/20 02:38:57;;;;;;;;;;;;;;;;;;4973795;28;19926;-60
2021/03/20 02:41:24;;;;;;;;;;;;;;;;;;4973157;28;20020;-63
2021/03/20 02:43:50;;;;;;;;;;;;;;;;;;4969331;28;19930;-64
2021/03/20 02:46:17;;;;;;;;;;;;;;;;;;4970976;28;20001;-62
2021/03/20 02:48:43;;;;;;;;;;;;;;;;;;4973517;28;19932;-62
2021/03/20 02:51:10;;;;;;;;;;;;;;;;;;4982599;28;19984;-63
2021/03/20 02:53:36;;;;;;;;;;;;;;;;;;4982366;28;19965;-62
2021/03/20 02:56:03;;;;;;;;;;;;;;;;;;4973485;28;19949;-63
2021/03/20 02:58:29;;;;;;;;;;;;;;;;;;4975247;28;19980;-60
2021/03/20 03:00:56;;;;;;;;;;;;;;;;;;4977787;28;19926;-62
2021/03/20 03:03:22;;;;;;;;;;;;;;;;;;4981298;28;20417;-62
2021/03/20 03:05:49;;;;;;;;;;;;;;;;;;4980448;28;19989;-61
2021/03/20 03:08:15;;;;;;;;;;;;;;;;;;4979000;28;20009;-61
2021/03/20 03:10:42;;;;;;;;;;;;;;;;;;4972519;28;19927;-64
2021/03/20 03:13:08;;;;;;;;;;;;;;;;;;4971347;28;19960;-61
2021/03/20 03:15:35;;;;;;;;;;;;;;;;;;4973847;28;19977;-61
2021/03/20 03:18:01;;;;;;;;;;;;;;;;;;4979355;28;19969;-62
2021/03/20 03:20:28;;;;;;;;;;;;;;;;;;4973211;28;20358;-62
2021/03/20 03:22:54;;;;;;;;;;;;;;;;;;4968081;28;19957;-63
2021/03/20 03:25:21;;;;;;;;;;;;;;;;;;4964796;28;19927;-63
2021/03/20 03:27:48;;;;;;;;;;;;;;;;;;4970842;28;19926;-62
2021/03/20 03:30:15;;;;;;;;;;;;;;;;;;4975597;28;20021;-61
2021/03/20 03:32:41;;;;;;;;;;;;;;;;;;4981966;28;20389;-62
2021/03/20 03:35:08;;;;;;;;;;;;;;;;;;4974987;28;20007;-62
2021/03/20 03:37:35;;;;;;;;;;;;;;;;;;4975244;28;19934;-61
2021/03/20 03:40:01;;;;;;;;;;;;;;;;;;4975638;28;20029;-63
2021/03/20 03:42:28;;;;;;;;;;;;;;;;;;4974239;28;19970;-62
2021/03/20 03:44:54;;;;;;;;;;;;;;;;;;4969285;28;19933;-63
2021/03/20 03:47:21;;;;;;;;;;;;;;;;;;4979887;28;19926;-62
2021/03/20 03:49:47;;;;;;;;;;;;;;;;;;4974846;28;20069;-61
2021/03/20 03:52:14;;;;;;;;;;;;;;;;;;4979711;23;19935;-66
2021/03/20 03:54:40;;;;;;;;;;;;;;;;;;4943627;28;20005;-67
2021/03/20 03:57:07;;;;;;;;;;;;;;;;;;4949981;28;20254;-66
2021/03/20 03:59:33;;;;;;;;;;;;;;;;;;4960705;28;19969;-66
2021/03/20 04:02:00;;;;;;;;;;;;;;;;;;4948377;28;19927;-65
2021/03/20 04:04:26;;;;;;;;;;;;;;;;;;4945567;28;19938;-66
2021/03/20 04:06:53;;;;;;;;;;;;;;;;;;4951079;28;19931;-66
2021/03/20 04:09:19;;;;;;;;;;;;;;;;;;4958271;28;19927;-67
2021/03/20 04:11:46;;;;;;;;;;;;;;;;;;4951772;28;19926;-66
2021/03/20 04:14:15;;;;;;;;;;;;;;;;;;4945508;28;19926;-66
2021/03/20 04:16:41;;;;;;;;;;;;;;;;;;4944454;28;19927;-66
2021/03/20 04:19:08;;;;;;;;;;;;;;;;;;4952148;28;20325;-65
2021/03/20 04:21:34;;;;;;;;;;;;;;;;;;4943641;28;19927;-67
2021/03/20 04:24:01;;;;;;;;;;;;;;;;;;4947962;28;20029;-66
2021/03/20 04:26:28;;;;;;;;;;;;;;;;;;4949445;28;19934;-66
2021/03/20 04:28:54;;;;;;;;;;;;;;;;;;4952374;28;19934;-66
2021/03/20 04:31:21;;;;;;;;;;;;;;;;;;4944020;28;20018;-66
2021/03/20 04:33:47;;;;;;;;;;;;;;;;;;4954792;28;19926;-67
2021/03/20 04:36:14;;;;;;;;;;;;;;;;;;4958079;28;19934;-66
2021/03/20 04:38:40;;;;;;;;;;;;;;;;;;4956871;28;19933;-66
2021/03/20 04:41:07;;;;;;;;;;;;;;;;;;4951935;28;19930;-66
2021/03/20 04:43:33;;;;;;;;;;;;;;;;;;4937560;28;19927;-66
2021/03/20 04:46:00;;;;;;;;;;;;;;;;;;4938222;28;20438;-66
2021/03/20 04:48:26;;;;;;;;;;;;;;;;;;4954017;28;19930;-65
2021/03/20 04:50:53;;;;;;;;;;;;;;;;;;4944616;28;20390;-65
2021/03/20 04:53:19;;;;;;;;;;;;;;;;;;4960569;28;20012;-66
2021/03/20 04:55:45;;;;;;;;;;;;;;;;;;4949072;28;19933;-65
2021/03/20 04:58:12;;;;;;;;;;;;;;;;;;4940276;28;19930;-66
2021/03/20 05:00:38;;;;;;;;;;;;;;;;;;4950824;28;19931;-65
2021/03/20 05:03:05;;;;;;;;;;;;;;;;;;4938166;28;19927;-66
2021/03/20 05:05:31;;;;;;;;;;;;;;;;;;4942346;28;20342;-65
2021/03/20 05:07:58;;;;;;;;;;;;;;;;;;4957118;28;19980;-67
2021/03/20 05:10:24;;;;;;;;;;;;;;;;;;4942530;29;20273;-66
2021/03/20 05:12:51;;;;;;;;;;;;;;;;;;4945943;28;19926;-65
2021/03/20 05:15:17;;;;;;;;;;;;;;;;;;4960581;28;20375;-65
2021/03/20 05:17:44;;;;;;;;;;;;;;;;;;4962590;28;19930;-66
2021/03/20 05:20:10;;;;;;;;;;;;;;;;;;4947188;28;20383;-65
2021/03/20 05:22:37;;;;;;;;;;;;;;;;;;4951278;28;19933;-67
2021/03/20 05:25:03;;;;;;;;;;;;;;;;;;4959021;28;19979;-65
2021/03/20 05:27:30;;;;;;;;;;;;;;;;;;4944327;28;19933;-65
2021/03/20 05:29:56;;;;;;;;;;;;;;;;;;4951487;28;19930;-66
2021/03/20 05:32:23;;;;;;;;;;;;;;;;;;4954101;28;20059;-65
2021/03/20 05:34:49;;;;;;;;;;;;;;;;;;4957134;28;19932;-66
2021/03/20 05:37:16;;;;;;;;;;;;;;;;;;4956254;28;19949;-65
2021/03/20 05:39:42;;;;;;;;;;;;;;;;;;4948335;28;19933;-65
2021/03/20 05:42:08;;;;;;;;;;;;;;;;;;4956539;28;20294;-65
2021/03/20 05:44:35;;;;;;;;;;;;;;;;;;4951566;28;20293;-65
2021/03/20 05:47:01;;;;;;;;;;;;;;;;;;4940852;28;20003;-65
2021/03/20 05:49:28;;;;;;;;;;;;;;;;;;4946694;28;19926;-65
2021/03/20 05:51:54;;;;;;;;;;;;;;;;;;4958508;28;19927;-66
2021/03/20 05:54:21;;;;;;;;;;;;;;;;;;4947607;28;19926;-65
2021/03/20 05:56:47;;;;;;;;;;;;;;;;;;4951009;28;19933;-65
2021/03/20 05:59:14;;;;;;;;;;;;;;;;;;4964119;28;20028;-65
2021/03/20 06:01:40;;;;;;;;;;;;;;;;;;4957319;28;19926;-67
2021/03/20 06:04:07;;;;;;;;;;;;;;;;;;4954155;28;19926;-65
2021/03/20 06:06:33;;;;;;;;;;;;;;;;;;4956761;28;19980;-65
2021/03/20 06:09:00;;;;;;;;;;;;;;;;;;4948137;28;19927;-66
2021/03/20 06:11:26;;;;;;;;;;;;;;;;;;4954200;28;19934;-66
2021/03/20 06:13:53;;;;;;;;;;;;;;;;;;4947115;28;19934;-66
2021/03/20 06:16:19;;;;;;;;;;;;;;;;;;4949667;28;19930;-66
2021/03/20 06:18:46;;;;;;;;;;;;;;;;;;4956145;28;20322;-66
2021/03/20 06:21:12;;;;;;;;;;;;;;;;;;4949208;28;19940;-66
2021/03/20 06:23:39;;;;;;;;;;;;;;;;;;4952018;28;19949;-66
2021/03/20 06:26:05;;;;;;;;;;;;;;;;;;4954843;28;19930;-67
2021/03/20 06:28:32;;;;;;;;;;;;;;;;;;4955546;28;19933;-67
2021/03/20 06:30:58;;;;;;;;;;;;;;;;;;4957154;28;19935;-67
2021/03/20 06:33:26;;;;;;;;;;;;;;;;;;4947856;28;19926;-67
2021/03/20 06:35:52;;;;;;;;;;;;;;;;;;4950891;28;20299;-67
2021/03/20 06:38:18;;;;;;;;;;;;;;;;;;4951418;28;19931;-67
2021/03/20 06:40:45;;;;;;;;;;;;;;;;;;4947027;28;20392;-64
2021/03/20 06:43:11;;;;;;;;;;;;;;;;;;4949771;28;19931;-64
2021/03/20 06:45:38;;;;;;;;;;;;;;;;;;4951559;28;20467;-64
2021/03/20 06:48:04;;;;;;;;;;;;;;;;;;4956699;28;19926;-66
2021/03/20 06:50:32;;;;;;;;;;;;;;;;;;4954818;28;20342;-65
2021/03/20 06:52:58;;;;;;;;;;;;;;;;;;4942580;28;19926;-66
2021/03/20 06:55:28;;;;;;;;;;;;;;;;;;4944900;28;20351;-66
2021/03/20 06:57:54;;;;;;;;;;;;;;;;;;4950776;28;19939;-65
2021/03/20 07:00:21;;;;;;;;;;;;;;;;;;4964128;28;19933;-65
2021/03/20 07:02:49;;;;;;;;;;;;;;;;;;4951260;28;19938;-66
2021/03/20 07:05:15;;;;;;;;;;;;;;;;;;4953357;28;19927;-66
2021/03/20 07:07:42;;;;;;;;;;;;;;;;;;4944586;28;19932;-68
2021/03/20 07:10:09;;;;;;;;;;;;;;;;;;4944763;28;20025;-65
2021/03/20 07:12:36;;;;;;;;;;;;;;;;;;4949616;28;19986;-66
2021/03/20 07:15:03;;;;;;;;;;;;;;;;;;4958550;28;19973;-66
2021/03/20 07:17:30;;;;;;;;;;;;;;;;;;4950410;28;19926;-66
2021/03/20 07:19:56;;;;;;;;;;;;;;;;;;4949487;28;19930;-65
2021/03/20 07:22:23;;;;;;;;;;;;;;;;;;4950480;28;20413;-66
2021/03/20 07:24:49;;;;;;;;;;;;;;;;;;4946090;28;19926;-66
2021/03/20 07:27:16;;;;;;;;;;;;;;;;;;4947473;28;20033;-66
2021/03/20 07:29:43;;;;;;;;;;;;;;;;;;4948469;28;19973;-67
2021/03/20 07:32:28;;;;;;;;;;;;;;;;;;4946457;28;19927;-66
2021/03/20 07:34:54;;;;;;;;;;;;;;;;;;4947488;28;19926;-66
2021/03/20 07:37:20;;;;;;;;;;;;;;;;;;4949174;28;19926;-67
2021/03/20 07:39:47;;;;;;;;;;;;;;;;;;4945804;28;19927;-66
2021/03/20 07:42:13;;;;;;;;;;;;;;;;;;4946231;28;20021;-66
2021/03/20 07:44:40;;;;;;;;;;;;;;;;;;4948622;28;19931;-66
2021/03/20 07:47:06;;;;;;;;;;;;;;;;;;4958716;28;19933;-66
2021/03/20 07:49:33;;;;;;;;;;;;;;;;;;4941380;28;19934;-66
2021/03/20 07:52:00;;;;;;;;;;;;;;;;;;4952848;28;19933;-66
2021/03/20 07:54:26;;;;;;;;;;;;;;;;;;4947356;28;20318;-66
2021/03/20 07:56:53;;;;;;;;;;;;;;;;;;4941537;29;19927;-66
2021/03/20 07:59:19;;;;;;;;;;;;;;;;;;4949968;28;20029;-66
2021/03/20 08:01:46;;;;;;;;;;;;;;;;;;4943760;28;19930;-66
2021/03/20 08:04:12;;;;;;;;;;;;;;;;;;4954298;28;20345;-66
2021/03/20 08:06:39;;;;;;;;;;;;;;;;;;4940133;28;19931;-66
2021/03/20 08:09:05;;;;;;;;;;;;;;;;;;4948867;28;19927;-65
2021/03/20 08:11:32;;;;;;;;;;;;;;;;;;4945394;28;19936;-65
2021/03/20 08:13:58;;;;;;;;;;;;;;;;;;4947329;28;19933;-66
2021/03/20 08:16:25;;;;;;;;;;;;;;;;;;4945920;28;19934;-65
2021/03/20 08:18:51;;;;;;;;;;;;;;;;;;4947141;28;19927;-65
2021/03/20 08:21:18;;;;;;;;;;;;;;;;;;4954733;28;19926;-66
2021/03/20 08:23:44;;;;;;;;;;;;;;;;;;4951379;28;20315;-66
2021/03/20 08:26:11;;;;;;;;;;;;;;;;;;4952733;28;19930;-66
2021/03/20 08:28:37;;;;;;;;;;;;;;;;;;4952162;28;20033;-66
2021/03/20 08:31:05;;;;;;;;;;;;;;;;;;4939045;28;19927;-66
2021/03/20 08:33:31;;;;;;;;;;;;;;;;;;4952408;28;19984;-65
2021/03/20 08:35:58;;;;;;;;;;;;;;;;;;4956942;28;20300;-66
2021/03/20 08:38:24;;;;;;;;;;;;;;;;;;4950429;28;20017;-66
2021/03/20 08:40:51;;;;;;;;;;;;;;;;;;4947748;28;20032;-66
2021/03/20 08:43:17;;;;;;;;;;;;;;;;;;4946150;28;20015;-65
2021/03/20 08:45:44;;;;;;;;;;;;;;;;;;4947803;28;19927;-65
2021/03/20 08:48:10;;;;;;;;;;;;;;;;;;4955584;28;19976;-66
2021/03/20 08:50:37;;;;;;;;;;;;;;;;;;4955778;28;20383;-64
2021/03/20 08:53:03;;;;;;;;;;;;;;;;;;4951291;28;19946;-65
2021/03/20 08:55:30;;;;;;;;;;;;;;;;;;4951055;28;19926;-65
2021/03/20 08:57:57;;;;;;;;;;;;;;;;;;4940306;28;19926;-66
2021/03/20 09:00:23;;;;;;;;;;;;;;;;;;4941893;28;19969;-66
2021/03/20 09:02:50;;;;;;;;;;;;;;;;;;4950202;28;19926;-65
2021/03/20 09:05:16;;;;;;;;;;;;;;;;;;4957541;28;20000;-64
2021/03/20 09:07:44;;;;;;;;;;;;;;;;;;4947008;28;19927;-66
2021/03/20 09:10:11;;;;;;;;;;;;;;;;;;4941911;28;19984;-65
2021/03/20 09:12:37;;;;;;;;;;;;;;;;;;4946133;28;19927;-66
2021/03/20 09:15:04;;;;;;;;;;;;;;;;;;4947098;28;19930;-65
2021/03/20 09:17:30;;;;;;;;;;;;;;;;;;4948186;28;19982;-65
2021/03/20 09:19:57;;;;;;;;;;;;;;;;;;4949204;28;20278;-65
2021/03/20 09:22:23;;;;;;;;;;;;;;;;;;4947480;28;20418;-67
2021/03/20 09:24:51;;;;;;;;;;;;;;;;;;4956115;28;19933;-66
2021/03/20 09:27:18;;;;;;;;;;;;;;;;;;4944647;28;20311;-66
2021/03/20 09:29:44;;;;;;;;;;;;;;;;;;4956123;28;20008;-66
2021/03/20 09:32:11;;;;;;;;;;;;;;;;;;4960196;28;19935;-65
2021/03/20 09:34:38;;;;;;;;;;;;;;;;;;4952274;28;19981;-62
2021/03/20 09:37:04;;;;;;;;;;;;;;;;;;4954710;28;20338;-63
2021/03/20 09:39:31;;;;;;;;;;;;;;;;;;4948410;28;19933;-63
2021/03/20 09:41:57;;;;;;;;;;;;;;;;;;4945818;28;19930;-63
2021/03/20 09:44:24;;;;;;;;;;;;;;;;;;4950999;28;20445;-63
2021/03/20 09:46:50;;;;;;;;;;;;;;;;;;4947377;28;19934;-60
2021/03/20 09:49:17;;;;;;;;;;;;;;;;;;4944515;28;19926;-62
2021/03/20 09:51:44;;;;;;;;;;;;;;;;;;4958058;28;20025;-61
2021/03/20 09:54:10;;;;;;;;;;;;;;;;;;4947275;28;19957;-62
2021/03/20 09:56:37;;;;;;;;;;;;;;;;;;4952623;28;19981;-62
2021/03/20 09:59:04;;;;;;;;;;;;;;;;;;4952031;28;19927;-61
2021/03/20 10:01:31;;;;;;;;;;;;;;;;;;4955449;28;19976;-62
2021/03/20 10:03:57;;;;;;;;;;;;;;;;;;4947859;28;19989;-61
2021/03/20 10:06:25;;;;;;;;;;;;;;;;;;4954440;28;19931;-61
2021/03/20 10:08:51;;;;;;;;;;;;;;;;;;4958338;28;19932;-61
2021/03/20 10:11:18;;;;;;;;;;;;;;;;;;4949336;28;20025;-61
2021/03/20 10:13:44;;;;;;;;;;;;;;;;;;4954303;28;20284;-61
2021/03/20 10:16:11;;;;;;;;;;;;;;;;;;4942578;28;19930;-65
2021/03/20 10:18:37;;;;;;;;;;;;;;;;;;4957941;28;19926;-65
2021/03/20 10:21:03;;;;;;;;;;;;;;;;;;4956259;28;19934;-65
2021/03/20 10:23:30;;;;;;;;;;;;;;;;;;4957285;28;20017;-65
2021/03/20 10:25:56;;;;;;;;;;;;;;;;;;4954625;28;19927;-65
2021/03/20 10:28:29;;;;;;;;;;;;;;;;;;4950803;28;20022;-65
2021/03/20 10:30:55;;;;;;;;;;;;;;;;;;4956021;28;19973;-65
2021/03/20 10:33:22;;;;;;;;;;;;;;;;;;4947713;28;19926;-65
2021/03/20 10:35:48;;;;;;;;;;;;;;;;;;4950327;28;20010;-66
2021/03/20 10:38:15;;;;;;;;;;;;;;;;;;4951011;28;19930;-65
2021/03/20 10:40:41;;;;;;;;;;;;;;;;;;4939142;28;20443;-65
2021/03/20 10:43:08;;;;;;;;;;;;;;;;;;4943505;28;19935;-65
2021/03/20 10:45:34;;;;;;;;;;;;;;;;;;4944120;28;20018;-64
2021/03/20 10:48:01;;;;;;;;;;;;;;;;;;4941851;28;19927;-65
2021/03/20 10:50:27;;;;;;;;;;;;;;;;;;4958264;28;19926;-65
2021/03/20 10:52:54;;;;;;;;;;;;;;;;;;4957674;28;19926;-64
2021/03/20 10:55:20;;;;;;;;;;;;;;;;;;4952117;28;20314;-65
2021/03/20 10:57:47;;;;;;;;;;;;;;;;;;4949193;28;19927;-65
2021/03/20 11:00:13;;;;;;;;;;;;;;;;;;4938698;28;19973;-64
2021/03/20 11:02:40;;;;;;;;;;;;;;;;;;4949103;28;20429;-65
2021/03/20 11:05:06;;;;;;;;;;;;;;;;;;4943700;28;19934;-65
2021/03/20 11:07:33;;;;;;;;;;;;;;;;;;4942164;28;19945;-65
2021/03/20 11:09:59;;;;;;;;;;;;;;;;;;4945095;28;20477;-65
2021/03/20 11:12:26;;;;;;;;;;;;;;;;;;4948704;28;19968;-64
2021/03/20 11:14:52;;;;;;;;;;;;;;;;;;4951100;28;19926;-64
2021/03/20 11:17:19;;;;;;;;;;;;;;;;;;4943478;28;20042;-65
2021/03/20 11:19:45;;;;;;;;;;;;;;;;;;4940847;28;19930;-65
2021/03/20 11:22:12;;;;;;;;;;;;;;;;;;4941890;28;19933;-66
2021/03/20 11:24:39;;;;;;;;;;;;;;;;;;4953572;28;19926;-65
2021/03/20 11:27:06;;;;;;;;;;;;;;;;;;4939364;28;19931;-65
2021/03/20 11:29:32;;;;;;;;;;;;;;;;;;4946541;28;20009;-66
2021/03/20 11:31:59;;;;;;;;;;;;;;;;;;4937271;28;19930;-68
2021/03/20 11:34:25;;;;;;;;;;;;;;;;;;4937718;28;20137;-62
2021/03/20 11:36:52;;;;;;;;;;;;;;;;;;4948519;28;20314;-62
2021/03/20 11:39:18;;;;;;;;;;;;;;;;;;4939962;28;20022;-62
2021/03/20 11:41:45;;;;;;;;;;;;;;;;;;4941943;29;19933;-62
2021/03/20 11:44:11;;;;;;;;;;;;;;;;;;4942109;28;19926;-65
2021/03/20 11:46:38;;;;;;;;;;;;;;;;;;4941918;28;19927;-65
2021/03/20 11:49:04;;;;;;;;;;;;;;;;;;4936643;28;19934;-65
2021/03/20 11:51:32;;;;;;;;;;;;;;;;;;4944450;28;19935;-65
2021/03/20 11:53:59;;;;;;;;;;;;;;;;;;4944827;28;20322;-65
2021/03/20 11:56:25;;;;;;;;;;;;;;;;;;4938517;28;19931;-65
2021/03/20 11:58:52;;;;;;;;;;;;;;;;;;4935172;29;19927;-65
2021/03/20 12:01:18;;;;;;;;;;;;;;;;;;4938546;28;19926;-66
2021/03/20 12:03:45;;;;;;;;;;;;;;;;;;4947656;28;19926;-66
2021/03/20 12:06:11;;;;;;;;;;;;;;;;;;4947100;28;19989;-67
2021/03/20 12:08:38;;;;;;;;;;;;;;;;;;4942241;28;20418;-65
2021/03/20 12:11:04;;;;;;;;;;;;;;;;;;4946941;28;19933;-66
2021/03/20 12:13:31;;;;;;;;;;;;;;;;;;4936404;28;20383;-66
2021/03/20 12:15:57;;;;;;;;;;;;;;;;;;4946493;28;19932;-66
2021/03/20 12:18:24;;;;;;;;;;;;;;;;;;4943849;28;19935;-66
2021/03/20 12:20:50;;;;;;;;;;;;;;;;;;4946983;28;19969;-66
2021/03/20 12:23:17;;;;;;;;;;;;;;;;;;4937345;28;19934;-66
2021/03/20 12:25:43;;;;;;;;;;;;;;;;;;4937588;28;20307;-64
2021/03/20 12:28:10;;;;;;;;;;;;;;;;;;4951813;28;19934;-66
2021/03/20 12:30:37;;;;;;;;;;;;;;;;;;4949046;28;19981;-66
2021/03/20 12:33:03;;;;;;;;;;;;;;;;;;4941171;28;20073;-65
2021/03/20 12:35:30;;;;;;;;;;;;;;;;;;4947259;28;20252;-66
2021/03/20 12:37:56;;;;;;;;;;;;;;;;;;4938270;28;20344;-66
2021/03/20 12:40:23;;;;;;;;;;;;;;;;;;4937598;29;19927;-66
2021/03/20 12:42:49;;;;;;;;;;;;;;;;;;4942681;28;20023;-66
2021/03/20 12:45:16;;;;;;;;;;;;;;;;;;4956147;28;19993;-66
2021/03/20 12:47:42;;;;;;;;;;;;;;;;;;4940468;28;19931;-66
2021/03/20 12:50:09;;;;;;;;;;;;;;;;;;4935072;28;19926;-66
2021/03/20 12:52:35;;;;;;;;;;;;;;;;;;4939309;28;20322;-65
2021/03/20 12:55:04;;;;;;;;;;;;;;;;;;4945668;28;19937;-67
2021/03/20 12:57:31;;;;;;;;;;;;;;;;;;4942392;28;19926;-66
2021/03/20 12:59:57;;;;;;;;;;;;;;;;;;4946775;28;20425;-65
2021/03/20 13:02:24;;;;;;;;;;;;;;;;;;4948345;28;19926;-65
2021/03/20 13:04:50;;;;;;;;;;;;;;;;;;4947149;28;19980;-65
2021/03/20 13:07:17;;;;;;;;;;;;;;;;;;4939637;28;19935;-65
2021/03/20 13:09:43;;;;;;;;;;;;;;;;;;4942241;28;19981;-66
2021/03/20 13:12:10;;;;;;;;;;;;;;;;;;4953558;28;19930;-65
2021/03/20 13:14:36;;;;;;;;;;;;;;;;;;4942323;28;20025;-65
2021/03/20 13:17:03;;;;;;;;;;;;;;;;;;4943917;28;19996;-65
2021/03/20 13:19:30;;;;;;;;;;;;;;;;;;4947655;28;19926;-66
2021/03/20 13:21:56;;;;;;;;;;;;;;;;;;4945616;28;20427;-65
2021/03/20 13:24:23;;;;;;;;;;;;;;;;;;4942036;28;19933;-65
2021/03/20 13:26:49;;;;;;;;;;;;;;;;;;4944550;28;19926;-64
2021/03/20 13:29:16;;;;;;;;;;;;;;;;;;4947040;28;20025;-65
2021/03/20 13:31:42;;;;;;;;;;;;;;;;;;4949079;28;20025;-65
2021/03/20 13:34:09;;;;;;;;;;;;;;;;;;4940131;28;20021;-65
2021/03/20 13:36:35;;;;;;;;;;;;;;;;;;4944748;28;20017;-65
2021/03/20 13:39:02;;;;;;;;;;;;;;;;;;4941923;28;20030;-65
2021/03/20 13:41:28;;;;;;;;;;;;;;;;;;4953267;28;19966;-65
2021/03/20 13:43:55;;;;;;;;;;;;;;;;;;4935044;28;20011;-65
2021/03/20 13:46:21;;;;;;;;;;;;;;;;;;4942958;28;19934;-65
2021/03/20 13:48:48;;;;;;;;;;;;;;;;;;4942704;28;19931;-65
2021/03/20 13:51:14;;;;;;;;;;;;;;;;;;4939132;28;19931;-65
2021/03/20 13:53:41;;;;;;;;;;;;;;;;;;4949762;28;20021;-65
2021/03/20 13:56:07;;;;;;;;;;;;;;;;;;4947600;28;20049;-65
2021/03/20 13:58:34;;;;;;;;;;;;;;;;;;4944777;28;19950;-64
2021/03/20 14:01:01;;;;;;;;;;;;;;;;;;4945990;28;20017;-64
2021/03/20 14:03:27;;;;;;;;;;;;;;;;;;4940431;28;19952;-63
2021/03/20 14:05:56;;;;;;;;;;;;;;;;;;4939993;28;19926;-65
2021/03/20 14:08:22;;;;;;;;;;;;;;;;;;4941932;28;20323;-65
2021/03/20 14:10:49;;;;;;;;;;;;;;;;;;4938384;28;19930;-71
2021/03/20 14:13:15;;;;;;;;;;;;;;;;;;4937088;28;20257;-65
2021/03/20 14:15:42;;;;;;;;;;;;;;;;;;4937727;28;20396;-66
2021/03/20 14:18:08;;;;;;;;;;;;;;;;;;4937568;28;20006;-65
2021/03/20 14:23:18;;;;;;;;;;;;;;;;;;4935794;28;19938;-65
2021/03/20 14:25:45;;;;;;;;;;;;;;;;;;4940366;28;20339;-65
2021/03/20 14:28:12;;;;;;;;;;;;;;;;;;4944138;28;19973;-65
2021/03/20 14:30:48;;;;;;;;;;;;;;;;;;4940866;28;20392;-65
2021/03/20 14:33:15;;;;;;;;;;;;;;;;;;4939962;28;19926;-66
2021/03/20 14:35:41;;;;;;;;;;;;;;;;;;4950387;28;20419;-66
2021/03/20 14:38:08;;;;;;;;;;;;;;;;;;4946784;28;20343;-66
2021/03/20 14:40:34;;;;;;;;;;;;;;;;;;4943110;28;19980;-66
2021/03/20 14:43:01;;;;;;;;;;;;;;;;;;4946209;28;20025;-66
2021/03/20 14:45:31;;;;;;;;;;;;;;;;;;4940162;28;19933;-65
2021/03/20 14:47:58;;;;;;;;;;;;;;;;;;4942519;28;19927;-66
2021/03/20 14:50:24;;;;;;;;;;;;;;;;;;4939253;28;20019;-67
2021/03/20 14:52:51;;;;;;;;;;;;;;;;;;4947636;28;19938;-64
2021/03/20 14:55:17;;;;;;;;;;;;;;;;;;4945629;28;20021;-65
2021/03/20 14:57:44;;;;;;;;;;;;;;;;;;4940726;28;19931;-65
2021/03/20 15:00:11;;;;;;;;;;;;;;;;;;4948419;28;19927;-66
2021/03/20 15:02:37;;;;;;;;;;;;;;;;;;4946262;28;20008;-65
2021/03/20 15:05:04;;;;;;;;;;;;;;;;;;4940750;28;19934;-65
2021/03/20 15:07:30;;;;;;;;;;;;;;;;;;4946089;28;19927;-66
2021/03/20 15:09:57;;;;;;;;;;;;;;;;;;4940646;28;20321;-65
2021/03/20 15:12:26;;;;;;;;;;;;;;;;;;4945046;28;19945;-66
2021/03/20 15:14:52;;;;;;;;;;;;;;;;;;4942398;28;19927;-65
2021/03/20 15:17:20;;;;;;;;;;;;;;;;;;4939780;28;20374;-65
2021/03/20 15:19:51;;;;;;;;;;;;;;;;;;4940423;28;19934;-66
2021/03/20 15:22:18;;;;;;;;;;;;;;;;;;4940724;28;19926;-66
2021/03/20 15:24:44;;;;;;;;;;;;;;;;;;4939806;28;20021;-66
2021/03/20 15:27:12;;;;;;;;;;;;;;;;;;4941206;28;19926;-66
2021/03/20 15:29:38;;;;;;;;;;;;;;;;;;4950414;28;20306;-65
2021/03/20 15:32:05;;;;;;;;;;;;;;;;;;4943016;28;20302;-65
2021/03/20 15:34:31;;;;;;;;;;;;;;;;;;4939525;28;19926;-64
2021/03/20 15:36:58;;;;;;;;;;;;;;;;;;4948232;28;20021;-64
2021/03/20 15:39:24;;;;;;;;;;;;;;;;;;4940367;28;20322;-66
2021/03/20 15:41:51;;;;;;;;;;;;;;;;;;4942274;28;20447;-65
2021/03/20 15:44:17;;;;;;;;;;;;;;;;;;4943757;28;20013;-65
2021/03/20 15:46:44;;;;;;;;;;;;;;;;;;4940489;28;19934;-65
2021/03/20 15:49:10;;;;;;;;;;;;;;;;;;4942676;28;20153;-65
2021/03/20 15:51:37;;;;;;;;;;;;;;;;;;4941737;28;20014;-66
2021/03/20 15:54:03;;;;;;;;;;;;;;;;;;4938794;28;20017;-64
2021/03/20 15:56:30;;;;;;;;;;;;;;;;;;4943806;28;20021;-64
2021/03/20 15:59:03;;;;;;;;;;;;;;;;;;4937675;29;19933;-64
2021/03/20 16:01:29;;;;;;;;;;;;;;;;;;4945796;28;19945;-65
2021/03/20 16:03:58;;;;;;;;;;;;;;;;;;4945157;28;19941;-65
2021/03/20 16:06:24;;;;;;;;;;;;;;;;;;4943549;28;19941;-63
2021/03/20 16:08:57;;;;;;;;;;;;;;;;;;4948353;28;19958;-64
2021/03/20 16:11:24;;;;;;;;;;;;;;;;;;4954953;28;19932;-64
2021/03/20 16:13:50;;;;;;;;;;;;;;;;;;4955680;28;19933;-65
2021/03/20 16:16:18;;;;;;;;;;;;;;;;;;4950506;28;19933;-63
2021/03/20 16:18:44;;;;;;;;;;;;;;;;;;4940767;28;19934;-65
2021/03/20 16:21:11;;;;;;;;;;;;;;;;;;4942844;28;19927;-64
2021/03/20 16:23:37;;;;;;;;;;;;;;;;;;4948436;28;19926;-64
2021/03/20 16:26:04;;;;;;;;;;;;;;;;;;4955868;28;19936;-64
2021/03/20 16:28:30;;;;;;;;;;;;;;;;;;4944212;28;19926;-64
2021/03/20 16:30:57;;;;;;;;;;;;;;;;;;4954815;28;19926;-64
2021/03/20 16:33:23;;;;;;;;;;;;;;;;;;4950064;28;20379;-65
2021/03/20 16:35:50;;;;;;;;;;;;;;;;;;4943923;28;19934;-64
2021/03/20 16:38:16;;;;;;;;;;;;;;;;;;4948044;28;20446;-64
2021/03/20 16:40:43;;;;;;;;;;;;;;;;;;4941184;28;20410;-64
2021/03/20 16:43:09;;;;;;;;;;;;;;;;;;4947369;28;19931;-64